Time,TemperatureF,DewpointF,PressureIn,WindDirection,WindDirectionDegrees,WindSpeedMPH,WindSpeedGustMPH,Humidity,HourlyPrecipIn,Conditions,Clouds,dailyrainin,SoftwareType,DateUTC
2013-04-19 00:01:00,78.8,67.4,29.94,ESE,112,2.5,3.1,68,0.00,,---,0.00,VWS V13.01,2013-04-19 04:01:00,
2013-04-19 00:06:00,78.8,67.8,29.93,ESE,112,3.1,6.0,69,0.00,,---,0.00,VWS V13.01,2013-04-19 04:06:00,
2013-04-19 00:11:00,79.0,67.9,29.93,SE,135,1.8,6.5,69,0.00,,---,0.00,VWS V13.01,2013-04-19 04:11:00,
2013-04-19 00:16:00,79.0,67.9,29.93,East,90,2.7,6.5,69,0.00,,---,0.00,VWS V13.01,2013-04-19 04:16:00,
2013-04-19 00:21:00,78.6,67.6,29.93,SE,135,2.9,6.5,69,0.00,,---,0.00,VWS V13.01,2013-04-19 04:21:00,
2013-04-19 00:26:00,78.6,68.0,29.93,ESE,112,1.1,8.1,70,0.00,,---,0.00,VWS V13.01,2013-04-19 04:26:00,
2013-04-19 00:31:00,78.6,68.0,29.93,SSE,158,3.1,8.1,70,0.00,,---,0.00,VWS V13.01,2013-04-19 04:31:00,
2013-04-19 00:36:00,79.0,68.4,29.93,SE,135,0.0,8.1,70,0.00,,---,0.00,VWS V13.01,2013-04-19 04:36:00,
2013-04-19 00:41:00,78.6,68.0,29.93,SE,135,3.4,8.1,70,0.00,,---,0.00,VWS V13.01,2013-04-19 04:41:00,
2013-04-19 00:46:00,78.6,68.0,29.93,SE,135,0.0,8.1,70,0.00,,---,0.00,VWS V13.01,2013-04-19 04:46:00,
2013-04-19 00:51:00,79.0,67.9,29.93,SSE,158,4.9,8.1,69,0.00,,---,0.00,VWS V13.01,2013-04-19 04:51:00,
2013-04-19 00:56:00,79.0,67.9,29.93,SE,135,2.5,8.1,69,0.00,,---,0.00,VWS V13.01,2013-04-19 04:56:00,
2013-04-19 01:01:00,79.0,67.9,29.93,SE,135,8.1,10.5,69,0.00,,---,0.00,VWS V13.01,2013-04-19 05:01:00,
2013-04-19 01:06:00,79.0,67.9,29.93,SE,135,8.1,10.5,69,0.00,,---,0.00,VWS V13.01,2013-04-19 05:06:00,
2013-04-19 01:11:00,79.0,67.9,29.93,SE,135,8.1,10.5,69,0.00,,---,0.00,VWS V13.01,2013-04-19 05:11:00,
2013-04-19 01:16:00,78.8,67.8,29.93,SSE,158,0.0,8.1,69,0.00,,---,0.00,VWS V13.01,2013-04-19 05:16:00,
2013-04-19 01:21:00,78.6,67.6,29.93,South,180,1.6,8.1,69,0.00,,---,0.00,VWS V13.01,2013-04-19 05:21:00,
2013-04-19 01:26:00,78.4,67.4,29.92,South,180,4.3,8.1,69,0.00,,---,0.00,VWS V13.01,2013-04-19 05:26:00,
2013-04-19 01:31:00,78.4,67.4,29.92,South,180,0.0,8.1,69,0.00,,---,0.00,VWS V13.01,2013-04-19 05:31:00,
2013-04-19 01:36:00,78.3,66.8,29.92,SSW,202,0.0,8.1,68,0.00,,---,0.00,VWS V13.01,2013-04-19 05:36:00,
2013-04-19 01:41:00,78.3,66.8,29.91,SE,135,3.1,8.1,68,0.00,,---,0.00,VWS V13.01,2013-04-19 05:41:00,
2013-04-19 01:46:00,77.9,66.5,29.91,SSE,158,0.0,8.1,68,0.00,,---,0.00,VWS V13.01,2013-04-19 05:46:00,
2013-04-19 01:51:00,78.1,66.7,29.91,SE,135,0.0,8.1,68,0.00,,---,0.00,VWS V13.01,2013-04-19 05:51:00,
2013-04-19 01:56:00,77.9,66.1,29.91,SE,135,0.0,8.1,67,0.00,,---,0.00,VWS V13.01,2013-04-19 05:56:00,
2013-04-19 02:01:00,77.9,66.1,29.91,SE,135,0.0,8.1,67,0.00,,---,0.00,VWS V13.01,2013-04-19 06:01:00,
2013-04-19 02:06:00,77.9,66.1,29.91,SSE,158,0.0,2.5,67,0.00,,---,0.00,VWS V13.01,2013-04-19 06:06:00,
2013-04-19 02:11:00,77.9,66.1,29.91,SE,135,0.0,4.5,67,0.00,,---,0.00,VWS V13.01,2013-04-19 06:11:00,
2013-04-19 02:16:00,78.1,66.2,29.91,SE,135,4.0,4.5,67,0.00,,---,0.00,VWS V13.01,2013-04-19 06:16:00,
2013-04-19 02:21:00,78.3,66.4,29.91,South,180,0.0,5.4,67,0.00,,---,0.00,VWS V13.01,2013-04-19 06:21:00,
2013-04-19 02:26:00,78.1,66.2,29.91,SE,135,2.0,5.6,67,0.00,,---,0.00,VWS V13.01,2013-04-19 06:26:00,
2013-04-19 02:31:00,78.3,67.3,29.91,SE,135,0.0,6.7,69,0.00,,---,0.00,VWS V13.01,2013-04-19 06:31:00,
2013-04-19 02:36:00,78.3,67.3,29.90,SE,135,5.1,7.6,69,0.00,,---,0.00,VWS V13.01,2013-04-19 06:36:00,
2013-04-19 02:41:00,78.4,67.4,29.90,SE,135,1.3,7.6,69,0.00,,---,0.00,VWS V13.01,2013-04-19 06:41:00,
2013-04-19 02:46:00,78.4,67.4,29.91,South,180,0.0,7.6,69,0.00,,---,0.00,VWS V13.01,2013-04-19 06:46:00,
2013-04-19 02:51:00,78.4,67.4,29.90,SE,135,0.0,7.6,69,0.00,,---,0.00,VWS V13.01,2013-04-19 06:51:00,
2013-04-19 02:56:00,78.4,67.4,29.90,South,180,1.8,7.6,69,0.00,,---,0.00,VWS V13.01,2013-04-19 06:56:00,
2013-04-19 03:01:00,78.6,67.6,29.90,ESE,112,0.0,4.9,69,0.00,,---,0.00,VWS V13.01,2013-04-19 07:01:00,
2013-04-19 03:06:00,78.4,67.4,29.90,SE,135,0.0,7.6,69,0.00,,---,0.00,VWS V13.01,2013-04-19 07:06:00,
2013-04-19 03:11:00,78.6,68.0,29.91,SE,135,9.2,9.2,70,0.00,,---,0.00,VWS V13.01,2013-04-19 07:11:00,
2013-04-19 03:16:00,78.8,68.2,29.91,SE,135,2.9,9.2,70,0.00,,---,0.00,VWS V13.01,2013-04-19 07:16:00,
2013-04-19 03:21:00,79.0,68.4,29.91,SE,135,4.5,9.2,70,0.00,,---,0.00,VWS V13.01,2013-04-19 07:21:00,
2013-04-19 03:26:00,78.6,68.0,29.91,SE,135,0.4,10.5,70,0.00,,---,0.00,VWS V13.01,2013-04-19 07:26:00,
2013-04-19 03:31:00,79.0,68.4,29.91,SE,135,2.7,10.5,70,0.00,,---,0.00,VWS V13.01,2013-04-19 07:31:00,
2013-04-19 03:36:00,78.8,67.4,29.91,SE,135,4.9,10.5,68,0.00,,---,0.00,VWS V13.01,2013-04-19 07:36:00,
2013-04-19 03:41:00,78.6,67.2,29.90,SE,135,4.7,10.5,68,0.00,,---,0.00,VWS V13.01,2013-04-19 07:41:00,
2013-04-19 03:46:00,78.6,67.2,29.90,SE,135,0.0,10.5,68,0.00,,---,0.00,VWS V13.01,2013-04-19 07:46:00,
2013-04-19 03:51:00,78.6,67.2,29.90,ESE,112,4.7,10.5,68,0.00,,---,0.00,VWS V13.01,2013-04-19 07:51:00,
2013-04-19 03:56:00,78.6,67.2,29.90,ESE,112,4.9,10.5,68,0.00,,---,0.00,VWS V13.01,2013-04-19 07:56:00,
2013-04-19 04:01:00,78.4,67.0,29.90,SSE,158,0.0,4.7,68,0.00,,---,0.00,VWS V13.01,2013-04-19 08:01:00,
2013-04-19 04:06:00,78.4,67.0,29.90,SE,135,0.9,4.7,68,0.00,,---,0.00,VWS V13.01,2013-04-19 08:06:00,
2013-04-19 04:11:00,78.4,67.0,29.90,SE,135,3.1,6.3,68,0.00,,---,0.00,VWS V13.01,2013-04-19 08:11:00,
2013-04-19 04:16:00,78.3,66.8,29.90,SSE,158,2.7,9.4,68,0.00,,---,0.00,VWS V13.01,2013-04-19 08:16:00,
2013-04-19 04:21:00,78.3,66.8,29.90,SSE,158,0.0,9.4,68,0.00,,---,0.00,VWS V13.01,2013-04-19 08:21:00,
2013-04-19 04:26:00,78.3,66.8,29.90,SSE,158,2.9,9.4,68,0.00,,---,0.00,VWS V13.01,2013-04-19 08:26:00,
2013-04-19 04:31:00,78.3,66.8,29.90,South,180,0.0,9.4,68,0.00,,---,0.00,VWS V13.01,2013-04-19 08:31:00,
2013-04-19 04:36:00,78.3,66.8,29.90,East,90,4.0,11.9,68,0.00,,---,0.00,VWS V13.01,2013-04-19 08:36:00,
2013-04-19 04:41:00,78.1,66.7,29.90,SSW,202,0.0,11.9,68,0.00,,---,0.00,VWS V13.01,2013-04-19 08:41:00,
2013-04-19 04:46:00,78.3,66.8,29.90,SSE,158,4.5,11.9,68,0.00,,---,0.00,VWS V13.01,2013-04-19 08:46:00,
2013-04-19 04:51:00,77.9,66.5,29.90,ESE,112,0.0,11.9,68,0.00,,---,0.00,VWS V13.01,2013-04-19 08:51:00,
2013-04-19 04:56:00,78.1,66.7,29.90,SSW,202,2.0,11.9,68,0.00,,---,0.00,VWS V13.01,2013-04-19 08:56:00,
2013-04-19 05:01:00,77.9,66.5,29.90,SSE,158,4.0,4.0,68,0.00,,---,0.00,VWS V13.01,2013-04-19 09:01:00,
2013-04-19 05:06:00,78.1,66.7,29.90,SE,135,4.3,5.8,68,0.00,,---,0.00,VWS V13.01,2013-04-19 09:06:00,
2013-04-19 05:11:00,77.9,66.5,29.91,South,180,0.0,5.8,68,0.00,,---,0.00,VWS V13.01,2013-04-19 09:11:00,
2013-04-19 05:16:00,77.9,66.5,29.91,South,180,2.5,5.8,68,0.00,,---,0.00,VWS V13.01,2013-04-19 09:16:00,
2013-04-19 05:21:00,77.9,66.9,29.90,SE,135,0.0,5.8,69,0.00,,---,0.00,VWS V13.01,2013-04-19 09:21:00,
2013-04-19 05:26:00,77.7,66.8,29.90,South,180,0.0,5.8,69,0.00,,---,0.00,VWS V13.01,2013-04-19 09:26:00,
2013-04-19 05:31:00,77.7,66.8,29.90,SSE,158,0.0,5.8,69,0.00,,---,0.00,VWS V13.01,2013-04-19 09:31:00,
2013-04-19 05:36:00,77.5,66.6,29.90,SE,135,0.0,5.8,69,0.00,,---,0.00,VWS V13.01,2013-04-19 09:36:00,
2013-04-19 05:41:00,77.5,67.0,29.90,SSE,158,0.0,5.8,70,0.00,,---,0.00,VWS V13.01,2013-04-19 09:41:00,
2013-04-19 05:46:00,77.5,67.0,29.90,SSE,158,0.0,5.8,70,0.00,,---,0.00,VWS V13.01,2013-04-19 09:46:00,
2013-04-19 05:51:00,77.4,66.8,29.91,SSE,158,0.0,5.8,70,0.00,,---,0.00,VWS V13.01,2013-04-19 09:51:00,
2013-04-19 05:56:00,77.4,66.8,29.91,SE,135,2.9,5.8,70,0.00,,---,0.00,VWS V13.01,2013-04-19 09:56:00,
2013-04-19 06:01:00,77.4,66.8,29.90,SSE,158,1.1,1.1,70,0.00,,---,0.00,VWS V13.01,2013-04-19 10:01:00,
2013-04-19 06:06:00,77.4,66.8,29.91,South,180,1.1,3.8,70,0.00,,---,0.00,VWS V13.01,2013-04-19 10:06:00,
2013-04-19 06:11:00,77.4,66.8,29.91,SE,135,0.0,4.5,70,0.00,,---,0.00,VWS V13.01,2013-04-19 10:11:00,
2013-04-19 06:16:00,77.4,66.4,29.91,SE,135,0.0,6.9,69,0.00,,---,0.00,VWS V13.01,2013-04-19 10:16:00,
2013-04-19 06:21:00,77.2,66.2,29.91,ESE,112,0.0,6.9,69,0.00,,---,0.00,VWS V13.01,2013-04-19 10:21:00,
2013-04-19 06:26:00,77.4,66.4,29.92,ESE,112,2.5,6.9,69,0.00,,---,0.00,VWS V13.01,2013-04-19 10:26:00,
2013-04-19 06:31:00,77.4,66.8,29.92,East,90,3.4,6.9,70,0.00,,---,0.00,VWS V13.01,2013-04-19 10:31:00,
2013-04-19 06:36:00,77.4,66.8,29.92,South,180,2.9,6.9,70,0.00,,---,0.00,VWS V13.01,2013-04-19 10:36:00,
2013-04-19 06:41:00,77.2,66.7,29.92,South,180,0.0,6.9,70,0.00,,---,0.00,VWS V13.01,2013-04-19 10:41:00,
2013-04-19 06:46:00,77.4,66.8,29.92,ESE,112,0.0,6.9,70,0.00,,---,0.00,VWS V13.01,2013-04-19 10:46:00,
2013-04-19 06:51:00,77.2,66.7,29.92,SSE,158,2.2,6.9,70,0.00,,---,0.00,VWS V13.01,2013-04-19 10:51:00,
2013-04-19 06:56:00,77.2,66.7,29.92,ESE,112,0.0,6.9,70,0.00,,---,0.00,VWS V13.01,2013-04-19 10:56:00,
2013-04-19 07:01:00,77.4,66.8,29.92,East,90,0.0,2.5,70,0.00,,---,0.00,VWS V13.01,2013-04-19 11:01:00,
2013-04-19 07:06:00,77.2,66.7,29.92,SE,135,1.1,3.4,70,0.00,,---,0.00,VWS V13.01,2013-04-19 11:06:00,
2013-04-19 07:11:00,77.2,67.1,29.92,SE,135,0.0,3.8,71,0.00,,---,0.00,VWS V13.01,2013-04-19 11:11:00,
2013-04-19 07:16:00,77.4,67.2,29.92,South,180,0.0,3.8,71,0.00,,---,0.00,VWS V13.01,2013-04-19 11:16:00,
2013-04-19 07:21:00,77.2,67.1,29.93,ESE,112,0.0,5.1,71,0.00,,---,0.00,VWS V13.01,2013-04-19 11:21:00,
2013-04-19 07:26:00,77.4,67.2,29.93,SE,135,0.0,5.1,71,0.00,,---,0.00,VWS V13.01,2013-04-19 11:26:00,
2013-04-19 07:31:00,77.5,67.4,29.93,SE,135,0.0,5.1,71,0.00,,---,0.00,VWS V13.01,2013-04-19 11:31:00,
2013-04-19 07:36:00,77.9,67.3,29.93,ESE,112,0.0,5.4,70,0.00,,---,0.00,VWS V13.01,2013-04-19 11:36:00,
2013-04-19 07:41:00,78.4,67.8,29.93,SSW,202,2.9,5.6,70,0.00,,---,0.00,VWS V13.01,2013-04-19 11:41:00,
2013-04-19 07:46:00,79.5,68.9,29.93,SSE,158,4.3,5.6,70,0.00,,---,0.00,VWS V13.01,2013-04-19 11:46:00,
2013-04-19 07:51:00,80.1,68.1,29.93,South,180,2.0,7.6,67,0.00,,---,0.00,VWS V13.01,2013-04-19 11:51:00,
2013-04-19 07:56:00,80.6,68.2,29.93,East,90,3.8,7.6,66,0.00,,---,0.00,VWS V13.01,2013-04-19 11:56:00,
2013-04-19 08:01:00,80.8,67.9,29.93,SSE,158,0.0,2.7,65,0.00,,---,0.00,VWS V13.01,2013-04-19 12:01:00,
2013-04-19 08:06:00,81.0,67.7,29.93,ESE,112,2.0,5.1,64,0.00,,---,0.00,VWS V13.01,2013-04-19 12:06:00,
2013-04-19 08:11:00,81.3,68.0,29.94,ESE,112,1.6,5.1,64,0.00,,---,0.00,VWS V13.01,2013-04-19 12:11:00,
2013-04-19 08:16:00,81.5,68.2,29.93,SE,135,4.0,6.9,64,0.00,,---,0.00,VWS V13.01,2013-04-19 12:16:00,
2013-04-19 08:21:00,82.0,68.2,29.94,ESE,112,6.9,11.9,63,0.00,,---,0.00,VWS V13.01,2013-04-19 12:21:00,
2013-04-19 08:26:00,82.0,67.8,29.94,SE,135,9.4,11.9,62,0.00,,---,0.00,VWS V13.01,2013-04-19 12:26:00,
2013-04-19 08:31:00,82.0,67.8,29.94,SE,135,3.8,11.9,62,0.00,,---,0.00,VWS V13.01,2013-04-19 12:31:00,
2013-04-19 08:36:00,82.6,68.2,29.94,ESE,112,0.0,13.4,62,0.00,,---,0.00,VWS V13.01,2013-04-19 12:36:00,
2013-04-19 08:41:00,82.9,68.1,29.94,SE,135,2.5,13.4,61,0.00,,---,0.00,VWS V13.01,2013-04-19 12:41:00,
2013-04-19 08:46:00,83.3,68.0,29.94,South,180,2.0,13.4,60,0.00,,---,0.00,VWS V13.01,2013-04-19 12:46:00,
2013-04-19 08:51:00,83.8,68.0,29.95,SSE,158,2.9,13.4,59,0.00,,---,0.00,VWS V13.01,2013-04-19 12:51:00,
2013-04-19 08:56:00,83.8,67.5,29.95,ESE,112,6.3,13.4,58,0.00,,---,0.00,VWS V13.01,2013-04-19 12:56:00,
2013-04-19 09:01:00,83.8,68.0,29.95,SSE,158,2.5,4.9,59,0.00,,---,0.00,VWS V13.01,2013-04-19 13:01:00,
2013-04-19 09:06:00,84.4,68.0,29.95,SE,135,6.7,7.8,58,0.00,,---,0.00,VWS V13.01,2013-04-19 13:06:00,
2013-04-19 09:11:00,84.4,68.0,29.95,SSE,158,3.8,11.9,58,0.00,,---,0.00,VWS V13.01,2013-04-19 13:11:00,
2013-04-19 09:16:00,84.6,68.2,29.95,ESE,112,4.9,11.9,58,0.00,,---,0.00,VWS V13.01,2013-04-19 13:16:00,
2013-04-19 09:21:00,84.6,68.2,29.95,SE,135,9.0,11.9,58,0.00,,---,0.00,VWS V13.01,2013-04-19 13:21:00,
2013-04-19 09:26:00,84.6,67.7,29.95,SE,135,12.5,12.5,57,0.00,,---,0.00,VWS V13.01,2013-04-19 13:26:00,
2013-04-19 09:31:00,84.6,67.2,29.95,SE,135,7.6,12.8,56,0.00,,---,0.00,VWS V13.01,2013-04-19 13:31:00,
2013-04-19 09:36:00,84.7,67.3,29.95,ESE,112,4.9,12.8,56,0.00,,---,0.00,VWS V13.01,2013-04-19 13:36:00,
2013-04-19 09:41:00,84.6,67.2,29.96,ESE,112,4.5,12.8,56,0.00,,---,0.00,VWS V13.01,2013-04-19 13:41:00,
2013-04-19 09:46:00,84.9,67.5,29.96,SSE,158,2.9,12.8,56,0.00,,---,0.00,VWS V13.01,2013-04-19 13:46:00,
2013-04-19 09:51:00,85.1,67.7,29.95,SSE,158,4.3,12.8,56,0.00,,---,0.00,VWS V13.01,2013-04-19 13:51:00,
2013-04-19 09:56:00,84.9,67.5,29.95,SSW,202,0.0,12.8,56,0.00,,---,0.00,VWS V13.01,2013-04-19 13:56:00,
2013-04-19 10:01:00,84.7,66.8,29.95,South,180,0.0,2.7,55,0.00,,---,0.00,VWS V13.01,2013-04-19 14:01:00,
2013-04-19 10:06:00,84.9,67.0,29.95,SSE,158,7.4,8.5,55,0.00,,---,0.00,VWS V13.01,2013-04-19 14:06:00,
2013-04-19 10:11:00,85.6,67.6,29.95,South,180,2.5,9.6,55,0.00,,---,0.00,VWS V13.01,2013-04-19 14:11:00,
2013-04-19 10:16:00,85.6,67.6,29.96,SE,135,5.1,9.6,55,0.00,,---,0.00,VWS V13.01,2013-04-19 14:16:00,
2013-04-19 10:21:00,85.3,67.3,29.96,SE,135,3.1,11.0,55,0.00,,---,0.00,VWS V13.01,2013-04-19 14:21:00,
2013-04-19 10:26:00,85.1,67.1,29.96,South,180,3.4,11.0,55,0.00,,---,0.00,VWS V13.01,2013-04-19 14:26:00,
2013-04-19 10:31:00,85.6,67.6,29.95,ESE,112,2.5,12.1,55,0.00,,---,0.00,VWS V13.01,2013-04-19 14:31:00,
2013-04-19 10:36:00,85.8,67.8,29.95,South,180,7.8,12.1,55,0.00,,---,0.00,VWS V13.01,2013-04-19 14:36:00,
2013-04-19 10:41:00,86.2,68.1,29.95,SSW,202,6.9,12.1,55,0.00,,---,0.00,VWS V13.01,2013-04-19 14:41:00,
2013-04-19 10:46:00,86.5,68.5,29.95,SE,135,1.8,12.1,55,0.00,,---,0.00,VWS V13.01,2013-04-19 14:46:00,
2013-04-19 10:51:00,86.7,68.6,29.96,ESE,112,5.8,13.0,55,0.00,,---,0.00,VWS V13.01,2013-04-19 14:51:00,
2013-04-19 10:56:00,87.1,69.0,29.96,ESE,112,7.4,13.0,55,0.00,,---,0.00,VWS V13.01,2013-04-19 14:56:00,
2013-04-19 11:01:00,86.9,68.8,29.95,SSE,158,4.9,11.0,55,0.00,,---,0.00,VWS V13.01,2013-04-19 15:01:00,
2013-04-19 11:06:00,86.9,66.6,29.96,South,180,9.4,14.3,51,0.00,,---,0.00,VWS V13.01,2013-04-19 15:06:00,
2013-04-19 11:11:00,86.9,66.6,29.96,SE,135,0.0,14.3,51,0.00,,---,0.00,VWS V13.01,2013-04-19 15:11:00,
2013-04-19 11:16:00,86.7,66.4,29.96,SE,135,6.5,14.3,51,0.00,,---,0.00,VWS V13.01,2013-04-19 15:16:00,
2013-04-19 11:21:00,86.9,66.6,29.95,ESE,112,4.5,16.3,51,0.00,,---,0.00,VWS V13.01,2013-04-19 15:21:00,
2013-04-19 11:26:00,87.1,66.8,29.95,ESE,112,2.0,16.3,51,0.00,,---,0.00,VWS V13.01,2013-04-19 15:26:00,
2013-04-19 11:31:00,87.4,67.1,29.96,SE,135,9.0,16.3,51,0.00,,---,0.00,VWS V13.01,2013-04-19 15:31:00,
2013-04-19 11:36:00,87.6,67.3,29.96,SE,135,6.3,16.3,51,0.00,,---,0.00,VWS V13.01,2013-04-19 15:36:00,
2013-04-19 11:41:00,87.6,67.3,29.96,ESE,112,0.0,16.3,51,0.00,,---,0.00,VWS V13.01,2013-04-19 15:41:00,
2013-04-19 11:46:00,88.2,67.8,29.96,SSE,158,3.8,16.3,51,0.00,,---,0.00,VWS V13.01,2013-04-19 15:46:00,
2013-04-19 11:51:00,88.9,68.4,29.96,SE,135,5.6,16.3,51,0.00,,---,0.00,VWS V13.01,2013-04-19 15:51:00,
2013-04-19 11:56:00,89.4,68.9,29.95,SE,135,3.6,16.3,51,0.00,,---,0.00,VWS V13.01,2013-04-19 15:56:00,
2013-04-19 12:01:00,89.1,68.6,29.95,SSE,158,0.0,7.2,51,0.00,,---,0.00,VWS V13.01,2013-04-19 16:01:00,
2013-04-19 12:06:00,89.1,65.6,29.95,SE,135,6.0,11.4,46,0.00,,---,0.00,VWS V13.01,2013-04-19 16:06:00,
2013-04-19 12:11:00,89.1,65.6,29.95,SSE,158,1.8,11.4,46,0.00,,---,0.00,VWS V13.01,2013-04-19 16:11:00,
2013-04-19 12:16:00,89.4,65.9,29.95,SSE,158,9.8,11.4,46,0.00,,---,0.00,VWS V13.01,2013-04-19 16:16:00,
2013-04-19 12:21:00,89.4,65.9,29.95,SE,135,3.8,11.4,46,0.00,,---,0.00,VWS V13.01,2013-04-19 16:21:00,
2013-04-19 12:26:00,89.4,65.9,29.95,East,90,9.2,12.3,46,0.00,,---,0.00,VWS V13.01,2013-04-19 16:26:00,
2013-04-19 12:31:00,89.2,64.5,29.94,SE,135,3.6,12.3,44,0.00,,---,0.00,VWS V13.01,2013-04-19 16:31:00,
2013-04-19 12:36:00,89.4,64.7,29.95,SSE,158,6.3,13.0,44,0.00,,---,0.00,VWS V13.01,2013-04-19 16:36:00,
2013-04-19 12:41:00,89.2,64.5,29.94,SSE,158,10.3,13.0,44,0.00,,---,0.00,VWS V13.01,2013-04-19 16:41:00,
2013-04-19 12:46:00,88.7,64.0,29.94,South,180,0.0,13.0,44,0.00,,---,0.00,VWS V13.01,2013-04-19 16:46:00,
2013-04-19 12:52:00,89.2,64.5,29.94,South,180,0.0,13.0,44,0.00,,---,0.00,VWS V13.01,2013-04-19 16:52:00,
2013-04-19 12:57:00,89.6,66.1,29.94,ESE,112,7.6,13.0,46,0.00,,---,0.00,VWS V13.01,2013-04-19 16:57:00,
2013-04-19 13:02:00,89.8,65.6,29.94,SE,135,12.1,12.1,45,0.00,,---,0.00,VWS V13.01,2013-04-19 17:02:00,
2013-04-19 13:07:00,89.4,65.3,29.93,SE,135,6.9,12.1,45,0.00,,---,0.00,VWS V13.01,2013-04-19 17:07:00,
2013-04-19 13:12:00,90.0,65.8,29.93,SSE,158,6.0,12.1,45,0.00,,---,0.00,VWS V13.01,2013-04-19 17:12:00,
2013-04-19 13:17:00,90.0,65.8,29.94,SE,135,5.6,13.6,45,0.00,,---,0.00,VWS V13.01,2013-04-19 17:17:00,
2013-04-19 13:22:00,90.0,65.8,29.93,SE,135,4.7,13.6,45,0.00,,---,0.00,VWS V13.01,2013-04-19 17:22:00,
2013-04-19 13:27:00,90.3,66.1,29.93,SE,135,6.5,13.6,45,0.00,,---,0.00,VWS V13.01,2013-04-19 17:27:00,
2013-04-19 13:31:00,90.3,66.1,29.93,SE,135,0.9,13.9,45,0.00,,---,0.00,VWS V13.01,2013-04-19 17:31:00,
2013-04-19 13:36:00,90.3,66.1,29.93,SE,135,10.1,13.9,45,0.00,,---,0.00,VWS V13.01,2013-04-19 17:36:00,
2013-04-19 13:41:00,90.1,65.9,29.93,South,180,2.0,13.9,45,0.00,,---,0.00,VWS V13.01,2013-04-19 17:41:00,
2013-04-19 13:46:00,90.5,66.3,29.93,SE,135,4.9,13.9,45,0.00,,---,0.00,VWS V13.01,2013-04-19 17:46:00,
2013-04-19 13:51:00,91.0,66.8,29.93,SSE,158,1.8,13.9,45,0.00,,---,0.00,VWS V13.01,2013-04-19 17:51:00,
2013-04-19 13:56:00,90.9,65.3,29.93,SE,135,7.4,15.0,43,0.00,,---,0.00,VWS V13.01,2013-04-19 17:56:00,
2013-04-19 14:01:00,90.3,64.8,29.93,ESE,112,0.0,10.5,43,0.00,,---,0.00,VWS V13.01,2013-04-19 18:01:00,
2013-04-19 14:06:00,90.5,65.0,29.93,SE,135,5.8,14.3,43,0.00,,---,0.00,VWS V13.01,2013-04-19 18:06:00,
2013-04-19 14:11:00,90.7,65.1,29.93,SE,135,5.6,14.3,43,0.00,,---,0.00,VWS V13.01,2013-04-19 18:11:00,
2013-04-19 14:16:00,90.9,65.3,29.93,SE,135,6.7,14.3,43,0.00,,---,0.00,VWS V13.01,2013-04-19 18:16:00,
2013-04-19 14:21:00,90.9,65.3,29.92,ESE,112,5.8,14.3,43,0.00,,---,0.00,VWS V13.01,2013-04-19 18:21:00,
2013-04-19 14:26:00,91.0,65.4,29.92,ESE,112,0.0,14.3,43,0.00,,---,0.00,VWS V13.01,2013-04-19 18:26:00,
2013-04-19 14:31:00,91.6,65.9,29.92,SE,135,0.0,14.3,43,0.00,,---,0.00,VWS V13.01,2013-04-19 18:31:00,
2013-04-19 14:36:00,91.6,65.9,29.92,SSE,158,8.3,14.3,43,0.00,,---,0.00,VWS V13.01,2013-04-19 18:36:00,
2013-04-19 14:41:00,90.9,65.3,29.91,SE,135,2.7,14.3,43,0.00,,---,0.00,VWS V13.01,2013-04-19 18:41:00,
2013-04-19 14:46:00,90.5,65.0,29.92,South,180,7.4,14.5,43,0.00,,---,0.00,VWS V13.01,2013-04-19 18:46:00,
2013-04-19 14:51:00,90.3,64.8,29.91,South,180,2.9,14.5,43,0.00,,---,0.00,VWS V13.01,2013-04-19 18:51:00,
2013-04-19 14:56:00,90.3,64.8,29.91,SE,135,5.6,14.5,43,0.00,,---,0.00,VWS V13.01,2013-04-19 18:56:00,
2013-04-19 15:01:00,90.5,65.0,29.91,SSE,158,8.1,12.8,43,0.00,,---,0.00,VWS V13.01,2013-04-19 19:01:00,
2013-04-19 15:06:00,90.5,65.0,29.91,SE,135,0.0,13.6,43,0.00,,---,0.00,VWS V13.01,2013-04-19 19:06:00,
2013-04-19 15:11:00,90.9,65.3,29.91,SE,135,7.4,13.6,43,0.00,,---,0.00,VWS V13.01,2013-04-19 19:11:00,
2013-04-19 15:16:00,91.0,65.4,29.91,SSE,158,9.4,14.1,43,0.00,,---,0.00,VWS V13.01,2013-04-19 19:16:00,
2013-04-19 15:21:00,90.9,65.3,29.91,SE,135,9.2,14.3,43,0.00,,---,0.00,VWS V13.01,2013-04-19 19:21:00,
2013-04-19 15:26:00,91.0,63.4,29.91,ESE,112,5.4,14.3,40,0.00,,---,0.00,VWS V13.01,2013-04-19 19:26:00,
2013-04-19 15:31:00,91.0,63.4,29.90,South,180,5.8,14.3,40,0.00,,---,0.00,VWS V13.01,2013-04-19 19:31:00,
2013-04-19 15:36:00,91.2,63.5,29.90,SSW,202,8.3,14.3,40,0.00,,---,0.00,VWS V13.01,2013-04-19 19:36:00,
2013-04-19 15:41:00,91.8,64.0,29.90,SSE,158,6.0,14.3,40,0.00,,---,0.00,VWS V13.01,2013-04-19 19:41:00,
2013-04-19 15:46:00,91.9,64.2,29.89,East,90,7.2,14.3,40,0.00,,---,0.00,VWS V13.01,2013-04-19 19:46:00,
2013-04-19 15:51:00,91.6,63.9,29.89,SSE,158,1.3,15.4,40,0.00,,---,0.00,VWS V13.01,2013-04-19 19:51:00,
2013-04-19 15:56:00,91.0,63.4,29.89,SE,135,6.0,15.4,40,0.00,,---,0.00,VWS V13.01,2013-04-19 19:56:00,
2013-04-19 16:01:00,90.5,62.9,29.89,ESE,112,4.9,9.6,40,0.00,,---,0.00,VWS V13.01,2013-04-19 20:01:00,
2013-04-19 16:06:00,90.3,62.7,29.88,SSE,158,10.7,10.7,40,0.00,,---,0.00,VWS V13.01,2013-04-19 20:06:00,
2013-04-19 16:11:00,90.1,62.6,29.88,SSW,202,6.5,10.7,40,0.00,,---,0.00,VWS V13.01,2013-04-19 20:11:00,
2013-04-19 16:16:00,90.3,62.7,29.88,ESE,112,4.0,11.9,40,0.00,,---,0.00,VWS V13.01,2013-04-19 20:16:00,
2013-04-19 16:21:00,90.0,62.4,29.88,South,180,7.4,11.9,40,0.00,,---,0.00,VWS V13.01,2013-04-19 20:21:00,
2013-04-19 16:26:00,90.0,62.4,29.88,SE,135,6.0,11.9,40,0.00,,---,0.00,VWS V13.01,2013-04-19 20:26:00,
2013-04-19 16:31:00,90.3,64.8,29.88,SE,135,2.7,11.9,43,0.00,,---,0.00,VWS V13.01,2013-04-19 20:31:00,
2013-04-19 16:36:00,90.1,64.7,29.88,SE,135,2.9,11.9,43,0.00,,---,0.00,VWS V13.01,2013-04-19 20:36:00,
2013-04-19 16:41:00,90.1,63.3,29.88,SE,135,3.1,11.9,41,0.00,,---,0.00,VWS V13.01,2013-04-19 20:41:00,
2013-04-19 16:46:00,90.5,62.9,29.88,SSE,158,6.9,11.9,40,0.00,,---,0.00,VWS V13.01,2013-04-19 20:46:00,
2013-04-19 16:51:00,90.5,62.9,29.88,SE,135,14.3,14.3,40,0.00,,---,0.00,VWS V13.01,2013-04-19 20:51:00,
2013-04-19 16:56:00,90.0,62.4,29.88,SE,135,6.7,14.3,40,0.00,,---,0.00,VWS V13.01,2013-04-19 20:56:00,
2013-04-19 17:01:00,89.1,62.3,29.87,SSE,158,8.1,8.3,41,0.00,,---,0.00,VWS V13.01,2013-04-19 21:01:00,
2013-04-19 17:06:00,88.5,62.5,29.88,SE,135,8.3,11.0,42,0.00,,---,0.00,VWS V13.01,2013-04-19 21:06:00,
2013-04-19 17:11:00,88.0,62.7,29.88,SW,225,0.0,11.4,43,0.00,,---,0.00,VWS V13.01,2013-04-19 21:11:00,
2013-04-19 17:16:00,88.2,63.5,29.88,SE,135,2.9,13.6,44,0.00,,---,0.00,VWS V13.01,2013-04-19 21:16:00,
2013-04-19 17:21:00,87.8,63.8,29.88,SSE,158,7.8,13.6,45,0.00,,---,0.00,VWS V13.01,2013-04-19 21:21:00,
2013-04-19 17:26:00,87.4,63.5,29.88,South,180,5.6,13.6,45,0.00,,---,0.00,VWS V13.01,2013-04-19 21:26:00,
2013-04-19 17:31:00,87.8,64.5,29.88,SE,135,0.0,13.6,46,0.00,,---,0.00,VWS V13.01,2013-04-19 21:31:00,
2013-04-19 17:36:00,87.8,63.2,29.88,SE,135,1.8,13.6,44,0.00,,---,0.00,VWS V13.01,2013-04-19 21:36:00,
2013-04-19 17:41:00,88.0,63.4,29.88,South,180,3.4,13.6,44,0.00,,---,0.00,VWS V13.01,2013-04-19 21:41:00,
2013-04-19 17:46:00,88.2,62.9,29.88,SSW,202,0.7,13.6,43,0.00,,---,0.00,VWS V13.01,2013-04-19 21:46:00,
2013-04-19 17:51:00,88.3,63.7,29.88,SE,135,4.9,15.7,44,0.00,,---,0.00,VWS V13.01,2013-04-19 21:51:00,
2013-04-19 17:56:00,88.2,63.5,29.88,SSE,158,11.4,15.7,44,0.00,,---,0.00,VWS V13.01,2013-04-19 21:56:00,
2013-04-19 18:01:00,88.3,63.0,29.88,SE,135,8.1,8.1,43,0.00,,---,0.00,VWS V13.01,2013-04-19 22:01:00,
2013-04-19 18:06:00,88.2,63.5,29.88,SSE,158,3.4,8.1,44,0.00,,---,0.00,VWS V13.01,2013-04-19 22:06:00,
2013-04-19 18:11:00,87.4,62.9,29.88,South,180,1.3,8.1,44,0.00,,---,0.00,VWS V13.01,2013-04-19 22:11:00,
2013-04-19 18:16:00,87.4,63.5,29.88,SE,135,6.5,9.0,45,0.00,,---,0.00,VWS V13.01,2013-04-19 22:16:00,
2013-04-19 18:21:00,87.3,64.0,29.88,SE,135,8.5,9.0,46,0.00,,---,0.00,VWS V13.01,2013-04-19 22:21:00,
2013-04-19 18:26:00,86.9,63.0,29.88,SSW,202,2.2,9.0,45,0.00,,---,0.00,VWS V13.01,2013-04-19 22:26:00,
2013-04-19 18:31:00,86.7,63.5,29.88,SSE,158,0.0,9.4,46,0.00,,---,0.00,VWS V13.01,2013-04-19 22:31:00,
2013-04-19 18:36:00,86.4,64.4,29.88,SE,135,2.2,9.4,48,0.00,,---,0.00,VWS V13.01,2013-04-19 22:36:00,
2013-04-19 18:41:00,86.2,64.8,29.88,SSE,158,4.7,9.4,49,0.00,,---,0.00,VWS V13.01,2013-04-19 22:41:00,
2013-04-19 18:46:00,85.6,64.3,29.88,SSE,158,4.5,9.4,49,0.00,,---,0.00,VWS V13.01,2013-04-19 22:46:00,
2013-04-19 18:51:00,85.3,64.6,29.88,SSE,158,2.2,14.1,50,0.00,,---,0.00,VWS V13.01,2013-04-19 22:51:00,
2013-04-19 18:56:00,84.9,64.8,29.88,ESE,112,1.1,14.1,51,0.00,,---,0.00,VWS V13.01,2013-04-19 22:56:00,
2013-04-19 19:01:00,84.7,65.7,29.88,South,180,2.0,6.0,53,0.00,,---,0.00,VWS V13.01,2013-04-19 23:01:00,
2013-04-19 19:06:00,84.7,65.7,29.88,South,180,3.8,7.4,53,0.00,,---,0.00,VWS V13.01,2013-04-19 23:06:00,
2013-04-19 19:11:00,84.4,65.9,29.88,SSE,158,5.8,7.4,54,0.00,,---,0.00,VWS V13.01,2013-04-19 23:11:00,
2013-04-19 19:16:00,84.2,66.3,29.88,SSE,158,2.0,10.7,55,0.00,,---,0.00,VWS V13.01,2013-04-19 23:16:00,
2013-04-19 19:21:00,83.8,66.0,29.88,SW,225,5.6,10.7,55,0.00,,---,0.00,VWS V13.01,2013-04-19 23:21:00,
2013-04-19 19:26:00,83.7,66.3,29.87,SSE,158,2.0,10.7,56,0.00,,---,0.00,VWS V13.01,2013-04-19 23:26:00,
2013-04-19 19:31:00,83.5,66.2,29.87,ENE,68,0.0,10.7,56,0.00,,---,0.00,VWS V13.01,2013-04-19 23:31:00,
2013-04-19 19:36:00,83.1,66.3,29.88,South,180,4.9,10.7,57,0.00,,---,0.00,VWS V13.01,2013-04-19 23:36:00,
2013-04-19 19:41:00,83.1,66.8,29.88,South,180,0.0,10.7,58,0.00,,---,0.00,VWS V13.01,2013-04-19 23:41:00,
2013-04-19 19:46:00,82.8,67.0,29.88,SSE,158,6.7,10.7,59,0.00,,---,0.00,VWS V13.01,2013-04-19 23:46:00,
2013-04-19 19:51:00,82.6,66.8,29.88,South,180,5.4,10.7,59,0.00,,---,0.00,VWS V13.01,2013-04-19 23:51:00,
2013-04-19 19:56:00,82.4,66.7,29.89,SE,135,0.0,10.7,59,0.00,,---,0.00,VWS V13.01,2013-04-19 23:56:00,
2013-04-19 20:01:00,82.2,67.0,29.90,SSW,202,2.5,6.5,60,0.00,,---,0.00,VWS V13.01,2013-04-20 00:01:00,
2013-04-19 20:06:00,82.2,67.0,29.91,SSE,158,2.0,7.6,60,0.00,,---,0.00,VWS V13.01,2013-04-20 00:06:00,
2013-04-19 20:11:00,82.0,67.3,29.91,South,180,2.9,7.6,61,0.00,,---,0.00,VWS V13.01,2013-04-20 00:11:00,
2013-04-19 20:16:00,82.0,67.3,29.91,South,180,0.0,7.6,61,0.00,,---,0.00,VWS V13.01,2013-04-20 00:16:00,
2013-04-19 20:21:00,82.0,67.8,29.91,SSE,158,0.0,7.6,62,0.00,,---,0.00,VWS V13.01,2013-04-20 00:21:00,
2013-04-19 20:26:00,82.0,67.8,29.91,South,180,0.0,7.6,62,0.00,,---,0.00,VWS V13.01,2013-04-20 00:26:00,
2013-04-19 20:31:00,82.0,67.8,29.92,SE,135,5.1,7.6,62,0.00,,---,0.00,VWS V13.01,2013-04-20 00:31:00,
2013-04-19 20:36:00,82.0,67.8,29.92,SSE,158,0.0,7.6,62,0.00,,---,0.00,VWS V13.01,2013-04-20 00:36:00,
2013-04-19 20:41:00,82.0,67.8,29.92,SSE,158,0.0,7.6,62,0.00,,---,0.00,VWS V13.01,2013-04-20 00:41:00,
2013-04-19 20:46:00,82.0,67.8,29.92,ESE,112,2.5,7.6,62,0.00,,---,0.00,VWS V13.01,2013-04-20 00:46:00,
2013-04-19 20:51:00,82.0,67.8,29.93,ESE,112,0.0,7.6,62,0.00,,---,0.00,VWS V13.01,2013-04-20 00:51:00,
2013-04-19 20:56:00,82.0,67.8,29.93,SE,135,2.9,7.6,62,0.00,,---,0.00,VWS V13.01,2013-04-20 00:56:00,
2013-04-19 21:01:00,81.9,67.6,29.93,SSE,158,0.0,2.7,62,0.00,,---,0.00,VWS V13.01,2013-04-20 01:01:00,
2013-04-19 21:06:00,81.7,67.4,29.93,SE,135,1.1,2.7,62,0.00,,---,0.00,VWS V13.01,2013-04-20 01:06:00,
2013-04-19 21:11:00,81.7,67.9,29.93,South,180,2.9,9.4,63,0.00,,---,0.00,VWS V13.01,2013-04-20 01:11:00,
2013-04-19 21:16:00,81.5,67.7,29.93,SE,135,0.0,9.4,63,0.00,,---,0.00,VWS V13.01,2013-04-20 01:16:00,
2013-04-19 21:21:00,81.5,67.7,29.93,SE,135,2.5,9.4,63,0.00,,---,0.00,VWS V13.01,2013-04-20 01:21:00,
2013-04-19 21:26:00,81.7,67.9,29.93,South,180,4.3,9.4,63,0.00,,---,0.00,VWS V13.01,2013-04-20 01:26:00,
2013-04-19 21:31:00,81.5,68.2,29.93,South,180,0.0,9.4,64,0.00,,---,0.00,VWS V13.01,2013-04-20 01:31:00,
2013-04-19 21:36:00,81.3,68.0,29.94,SSE,158,0.0,9.4,64,0.00,,---,0.00,VWS V13.01,2013-04-20 01:36:00,
2013-04-19 21:41:00,81.3,68.0,29.94,SSW,202,0.0,9.4,64,0.00,,---,0.00,VWS V13.01,2013-04-20 01:41:00,
2013-04-19 21:46:00,81.3,68.0,29.94,ESE,112,0.0,9.4,64,0.00,,---,0.00,VWS V13.01,2013-04-20 01:46:00,
2013-04-19 21:51:00,81.3,68.4,29.94,ESE,112,0.0,9.4,65,0.00,,---,0.00,VWS V13.01,2013-04-20 01:51:00,
2013-04-19 21:56:00,81.1,68.3,29.95,South,180,1.8,9.4,65,0.00,,---,0.00,VWS V13.01,2013-04-20 01:56:00,
2013-04-19 22:01:00,81.3,68.4,29.95,SE,135,0.0,6.3,65,0.00,,---,0.00,VWS V13.01,2013-04-20 02:01:00,
2013-04-19 22:06:00,81.0,68.1,29.95,South,180,0.0,6.3,65,0.00,,---,0.00,VWS V13.01,2013-04-20 02:06:00,
2013-04-19 22:11:00,81.1,68.3,29.95,SE,135,0.0,6.3,65,0.00,,---,0.00,VWS V13.01,2013-04-20 02:11:00,
2013-04-19 22:16:00,81.0,68.1,29.95,SSE,158,5.1,6.3,65,0.00,,---,0.00,VWS V13.01,2013-04-20 02:16:00,
2013-04-19 22:21:00,81.0,68.1,29.95,ESE,112,0.0,6.3,65,0.00,,---,0.00,VWS V13.01,2013-04-20 02:21:00,
2013-04-19 22:26:00,81.0,68.1,29.95,SE,135,0.0,6.3,65,0.00,,---,0.00,VWS V13.01,2013-04-20 02:26:00,
2013-04-19 22:31:00,81.0,68.1,29.95,SE,135,0.0,6.3,65,0.00,,---,0.00,VWS V13.01,2013-04-20 02:31:00,
2013-04-19 22:36:00,80.8,67.9,29.95,SE,135,0.0,6.3,65,0.00,,---,0.00,VWS V13.01,2013-04-20 02:36:00,
2013-04-19 22:41:00,80.8,68.4,29.95,SE,135,0.0,6.3,66,0.00,,---,0.00,VWS V13.01,2013-04-20 02:41:00,
2013-04-19 22:46:00,80.8,68.4,29.95,SE,135,0.0,6.3,66,0.00,,---,0.00,VWS V13.01,2013-04-20 02:46:00,
2013-04-19 22:51:00,80.8,68.4,29.95,SE,135,0.9,6.3,66,0.00,,---,0.00,VWS V13.01,2013-04-20 02:51:00,
2013-04-19 22:56:00,80.8,68.4,29.95,SSE,158,0.0,6.3,66,0.00,,---,0.00,VWS V13.01,2013-04-20 02:56:00,
2013-04-19 23:01:00,80.8,68.4,29.95,SSE,158,0.0,0.0,66,0.00,,---,0.00,VWS V13.01,2013-04-20 03:01:00,
2013-04-19 23:06:00,80.6,68.2,29.95,East,90,0.0,7.4,66,0.00,,---,0.00,VWS V13.01,2013-04-20 03:06:00,
2013-04-19 23:11:00,80.4,68.0,29.95,SE,135,0.0,7.4,66,0.00,,---,0.00,VWS V13.01,2013-04-20 03:11:00,
2013-04-19 23:16:00,80.4,68.5,29.95,SE,135,0.0,7.4,67,0.00,,---,0.00,VWS V13.01,2013-04-20 03:16:00,
2013-04-19 23:21:00,80.2,68.3,29.95,SE,135,0.0,7.4,67,0.00,,---,0.00,VWS V13.01,2013-04-20 03:21:00,
2013-04-19 23:26:00,80.4,68.5,29.95,SSE,158,0.0,7.4,67,0.00,,---,0.00,VWS V13.01,2013-04-20 03:26:00,
2013-04-19 23:31:00,80.2,68.3,29.95,SSE,158,0.0,7.4,67,0.00,,---,0.00,VWS V13.01,2013-04-20 03:31:00,
2013-04-19 23:36:00,80.4,68.5,29.95,SSE,158,1.3,7.4,67,0.00,,---,0.00,VWS V13.01,2013-04-20 03:36:00,
2013-04-19 23:41:00,80.2,68.3,29.95,SE,135,0.0,7.4,67,0.00,,---,0.00,VWS V13.01,2013-04-20 03:41:00,
2013-04-19 23:46:00,80.2,68.3,29.94,SE,135,0.0,7.4,67,0.00,,---,0.00,VWS V13.01,2013-04-20 03:46:00,
2013-04-19 23:51:00,80.2,68.7,29.94,ESE,112,0.0,7.4,68,0.00,,---,0.00,VWS V13.01,2013-04-20 03:51:00,
2013-04-19 23:56:00,80.1,68.6,29.94,SSE,158,0.0,7.4,68,0.00,,---,0.00,VWS V13.01,2013-04-20 03:56:00,